Main page
METAR-TAF:

METAR-TAF

Airports :

Blackpool, England

Blackpool Airport

latitude: 53-46N, longitude: 003-02W, elevation: 10 m

Current weather observation

The report was made 46 minutes ago, at 20:50 UTC
Wind 15 kt from the South/Southwest
Temperature 8°C
Humidity 87%
Pressure 1006 hPa
Visibility 10 km or more
no clouds below 1500 m and no cumulonimbus

METAR: EGNH 232050Z 21015KT CAVOK 08/06 Q1006

Time: 21:36 (21:36 UTC)

Forecast

The report was made 4 hours and 38 minutes ago, at 16:58 UTC
Forecast valid from 23 at 18 UTC to 23 at 21 UTC
Wind 15 kt from the Southwest
Visibility 10 km or more
Few clouds at a height of 2000 ft
Temporary
from 23 at 18 UTC to 23 at 21 UTC
Wind 22 kt from the Southwest with gusts up to 32 kt

TAF: EGNH 231658Z 2318/2321 22015KT 9999 FEW020 TEMPO 2318/2321 22022G32KT

Weather observations and forecasts of more than 4000 airports (METAR and TAF reports).

The available stations are represented by yellow and red dots on the map.

Hover mouse over dot to see the name of the station.

Then click to see weather observations and forecasts.

To change the map : click on the green buttons with a black cross to zoom in, on the green button with a dash to zoom out, or on the green arrows for adjacent maps.


METAR-TAF: